createdAt,value
2023-03-11T00:01:12.072Z,4.15
2023-03-11T00:03:41.089Z,4.06
2023-03-11T00:06:09.061Z,4.04
2023-03-11T00:08:37.071Z,4.05
2023-03-11T00:11:07.943Z,4.05
2023-03-11T00:13:36.858Z,4.00
2023-03-11T00:16:07.467Z,4.06
2023-03-11T00:18:35.835Z,4.09
2023-03-11T00:21:03.701Z,3.98
2023-03-11T00:23:32.606Z,3.95
2023-03-11T00:26:03.067Z,3.94
2023-03-11T00:28:34.048Z,4.07
2023-03-11T00:31:03.397Z,4.01
2023-03-11T00:33:33.080Z,4.06
2023-03-11T00:36:01.118Z,3.98
2023-03-11T00:38:29.354Z,4.00
2023-03-11T00:40:57.924Z,4.10
2023-03-11T00:43:26.392Z,3.91
2023-03-11T00:45:54.342Z,3.91
2023-03-11T00:48:22.731Z,3.98
2023-03-11T00:50:52.223Z,4.05
2023-03-11T00:53:20.585Z,4.08
2023-03-11T00:55:48.417Z,4.11
2023-03-11T00:58:16.872Z,4.08
2023-03-11T01:00:51.056Z,4.11
2023-03-11T01:03:18.983Z,4.07
2023-03-11T01:05:47.133Z,4.08
2023-03-11T01:08:16.797Z,4.02
2023-03-11T01:10:44.732Z,3.86
2023-03-11T01:13:13.856Z,3.88
2023-03-11T01:15:41.981Z,3.97
2023-03-11T01:18:10.011Z,3.93
2023-03-11T01:20:39.036Z,3.83
2023-03-11T01:23:07.974Z,3.84
2023-03-11T01:25:38.090Z,3.79
2023-03-11T01:28:06.532Z,3.78
2023-03-11T01:30:36.531Z,3.77
2023-03-11T01:33:05.552Z,3.74
2023-03-11T01:35:35.376Z,3.90
2023-03-11T01:38:03.374Z,3.76
2023-03-11T01:40:33.524Z,3.78
2023-03-11T01:43:08.457Z,3.76
2023-03-11T01:45:42.744Z,3.78
2023-03-11T01:48:14.933Z,4.00
2023-03-11T01:50:46.248Z,3.96
2023-03-11T01:53:16.556Z,3.97
2023-03-11T01:55:48.211Z,3.80
2023-03-11T01:58:21.958Z,3.87
2023-03-11T02:00:50.044Z,3.87
2023-03-11T02:03:23.193Z,3.78
2023-03-11T02:05:53.764Z,3.74
2023-03-11T02:08:21.763Z,3.69
2023-03-11T02:10:52.794Z,3.68
2023-03-11T02:13:24.996Z,3.67
2023-03-11T02:15:53.297Z,3.68
2023-03-11T02:18:22.264Z,3.57
2023-03-11T02:20:56.150Z,3.63
2023-03-11T02:23:31.787Z,3.47
2023-03-11T02:26:06.985Z,3.54
2023-03-11T02:28:39.029Z,3.38
2023-03-11T02:31:07.321Z,3.28
2023-03-11T02:33:38.217Z,3.38
2023-03-11T02:36:36.017Z,3.21
2023-03-11T02:39:05.956Z,3.22
2023-03-11T02:41:37.829Z,3.07
2023-03-11T02:44:09.246Z,3.06
2023-03-11T02:46:38.178Z,2.99
2023-03-11T02:49:07.811Z,2.86
2023-03-11T02:51:38.018Z,2.82
2023-03-11T02:54:07.513Z,2.83
2023-03-11T02:56:37.362Z,2.95
2023-03-11T02:59:05.594Z,3.01
2023-03-11T03:01:33.794Z,3.06
2023-03-11T03:04:02.300Z,3.01
2023-03-11T03:06:34.022Z,3.08
2023-03-11T03:09:06.127Z,3.24
2023-03-11T03:11:36.756Z,3.28
2023-03-11T03:14:07.271Z,3.42
2023-03-11T03:16:37.452Z,3.41
2023-03-11T03:19:05.468Z,3.46
2023-03-11T03:21:34.437Z,3.36
2023-03-11T03:24:03.818Z,3.43
2023-03-11T03:26:35.865Z,3.35
2023-03-11T03:29:05.237Z,3.37
2023-03-11T03:31:33.444Z,3.43
2023-03-11T03:34:02.909Z,3.53
2023-03-11T03:36:31.386Z,3.57
2023-03-11T03:39:04.895Z,3.48
2023-03-11T03:41:39.124Z,3.54
2023-03-11T03:44:10.441Z,3.43
2023-03-11T03:46:40.179Z,3.49
2023-03-11T03:49:11.191Z,3.52
2023-03-11T03:51:39.923Z,3.49
2023-03-11T03:54:13.112Z,3.49
2023-03-11T03:56:42.753Z,3.42
2023-03-11T03:59:14.195Z,3.53
2023-03-11T04:01:48.812Z,3.52
2023-03-11T04:04:18.986Z,3.54
2023-03-11T04:06:46.992Z,3.64
2023-03-11T04:09:16.038Z,3.54
2023-03-11T04:11:46.384Z,3.62
2023-03-11T04:14:16.164Z,3.67
2023-03-11T04:16:51.786Z,3.73
2023-03-11T04:19:20.133Z,3.56
2023-03-11T04:21:50.628Z,3.59
2023-03-11T04:24:19.598Z,3.51
2023-03-11T04:26:56.165Z,3.53
2023-03-11T04:29:24.462Z,3.47
2023-03-11T04:31:57.544Z,3.44
2023-03-11T04:34:26.747Z,3.45
2023-03-11T04:36:57.120Z,3.38
2023-03-11T04:39:30.842Z,3.59
2023-03-11T04:42:03.554Z,3.59
2023-03-11T04:44:33.909Z,3.39
2023-03-11T04:47:02.007Z,3.42
2023-03-11T04:49:30.532Z,3.45
2023-03-11T04:52:00.388Z,3.43
2023-03-11T04:54:28.823Z,3.36
2023-03-11T04:56:57.558Z,3.29
2023-03-11T04:59:28.519Z,3.29
2023-03-11T05:01:56.568Z,3.31
2023-03-11T05:04:24.901Z,3.31
2023-03-11T05:06:54.545Z,3.31
2023-03-11T05:09:26.491Z,3.33
2023-03-11T05:11:54.997Z,3.39
2023-03-11T05:14:23.330Z,3.35
2023-03-11T05:16:54.277Z,3.43
2023-03-11T05:19:35.010Z,3.46
2023-03-11T05:22:12.493Z,3.46
2023-03-11T05:24:40.912Z,3.34
2023-03-11T05:27:08.837Z,3.28
2023-03-11T05:29:39.215Z,3.21
2023-03-11T05:32:12.042Z,3.17
2023-03-11T05:34:40.269Z,3.14
2023-03-11T05:37:09.269Z,3.05
2023-03-11T05:39:40.377Z,3.09
2023-03-11T05:42:25.962Z,3.10
2023-03-11T05:44:58.434Z,3.21
2023-03-11T05:47:31.952Z,3.20
2023-03-11T05:50:00.272Z,3.24
2023-03-11T05:52:30.600Z,3.19
2023-03-11T05:54:59.722Z,3.22
2023-03-11T05:57:29.710Z,3.30
2023-03-11T05:59:58.022Z,3.38
2023-03-11T06:02:26.179Z,3.53
2023-03-11T06:04:57.752Z,3.40
2023-03-11T06:07:26.327Z,3.32
2023-03-11T06:09:55.759Z,3.37
2023-03-11T06:12:24.167Z,3.43
2023-03-11T06:15:16.657Z,3.41
2023-03-11T06:17:44.734Z,3.51
2023-03-11T06:20:15.841Z,3.56
2023-03-11T06:22:45.197Z,3.52
2023-03-11T06:25:13.991Z,3.55
2023-03-11T06:27:44.553Z,3.54
2023-03-11T06:30:14.477Z,3.54
2023-03-11T06:32:51.225Z,3.57
2023-03-11T06:35:21.631Z,3.60
2023-03-11T06:37:49.612Z,3.55
2023-03-11T06:40:18.667Z,3.53
2023-03-11T06:42:47.551Z,3.49
2023-03-11T06:45:15.751Z,3.41
2023-03-11T06:47:45.031Z,3.40
2023-03-11T06:50:14.919Z,3.30
2023-03-11T06:52:44.669Z,3.37
2023-03-11T06:55:15.309Z,3.31
2023-03-11T06:57:44.698Z,3.42
2023-03-11T07:00:15.183Z,3.43
2023-03-11T07:02:51.174Z,3.44
2023-03-11T07:05:19.956Z,3.47
2023-03-11T07:07:51.050Z,3.54
2023-03-11T07:10:21.502Z,3.50
2023-03-11T07:12:52.127Z,3.51
2023-03-11T07:15:20.758Z,3.53
2023-03-11T07:17:49.555Z,3.59
2023-03-11T07:20:19.094Z,3.71
2023-03-11T07:22:51.434Z,3.79
2023-03-11T07:25:19.941Z,3.69
2023-03-11T07:27:49.599Z,3.71
2023-03-11T07:30:19.260Z,3.79
2023-03-11T07:32:48.655Z,3.72
2023-03-11T07:35:17.659Z,3.75
2023-03-11T07:37:46.022Z,3.72
2023-03-11T07:40:18.668Z,3.89
2023-03-11T07:42:47.054Z,3.92
2023-03-11T07:45:15.760Z,3.94
2023-03-11T07:47:45.260Z,3.91
2023-03-11T07:50:17.293Z,4.00
2023-03-11T07:52:50.115Z,4.03
2023-03-11T07:55:21.951Z,4.08
2023-03-11T07:57:51.657Z,4.16
2023-03-11T08:00:21.567Z,4.19
2023-03-11T08:02:55.254Z,4.28
2023-03-11T08:05:23.302Z,4.25
2023-03-11T08:07:51.811Z,4.27
2023-03-11T08:10:21.763Z,4.36
2023-03-11T08:12:54.480Z,4.34
2023-03-11T08:15:25.056Z,4.32
2023-03-11T08:17:53.591Z,4.41
2023-03-11T08:20:21.747Z,4.38
2023-03-11T08:22:57.913Z,4.36
2023-03-11T08:25:30.999Z,4.37
2023-03-11T08:27:59.168Z,4.33
2023-03-11T08:30:29.736Z,4.32
2023-03-11T08:32:57.780Z,4.46
2023-03-11T08:35:26.205Z,4.34
2023-03-11T08:37:55.289Z,4.28
2023-03-11T08:40:25.174Z,4.30
2023-03-11T08:42:56.536Z,4.54
2023-03-11T08:45:25.582Z,4.65
2023-03-11T08:47:53.622Z,4.81
2023-03-11T08:50:22.211Z,4.72
2023-03-11T08:52:50.671Z,4.84
2023-03-11T08:55:25.958Z,4.93
2023-03-11T08:57:56.120Z,4.97
2023-03-11T09:00:25.058Z,5.16
2023-03-11T09:02:53.112Z,5.24
2023-03-11T09:05:21.463Z,5.36
2023-03-11T09:07:49.626Z,5.56
2023-03-11T09:10:18.268Z,5.73
2023-03-11T09:12:46.215Z,5.77
2023-03-11T09:15:15.588Z,5.75
2023-03-11T09:17:43.857Z,5.76
2023-03-11T09:20:15.163Z,5.91
2023-03-11T09:22:45.703Z,6.21
2023-03-11T09:25:14.447Z,6.29
2023-03-11T09:27:42.492Z,6.25
2023-03-11T09:30:12.086Z,6.21
2023-03-11T09:32:41.741Z,5.91
2023-03-11T09:35:10.933Z,5.76
2023-03-11T09:37:39.142Z,5.47
2023-03-11T09:40:08.139Z,5.25
2023-03-11T09:42:43.914Z,5.14
2023-03-11T09:45:17.869Z,5.20
2023-03-11T09:48:01.154Z,5.11
2023-03-11T09:50:32.271Z,4.95
2023-03-11T09:53:11.753Z,4.95
2023-03-11T09:55:44.216Z,5.02
2023-03-11T09:58:20.692Z,5.19
2023-03-11T10:00:52.016Z,5.47
2023-03-11T10:03:39.264Z,5.51
2023-03-11T10:06:15.732Z,5.71
2023-03-11T10:08:47.695Z,5.82
2023-03-11T10:11:32.771Z,5.99
2023-03-11T10:14:14.070Z,6.22
2023-03-11T10:16:52.063Z,6.50
2023-03-11T10:19:43.085Z,6.71
2023-03-11T10:22:18.258Z,7.06
2023-03-11T10:25:05.030Z,7.08
2023-03-11T10:27:41.875Z,7.06
2023-03-11T10:30:20.531Z,7.01
2023-03-11T10:32:56.140Z,7.03
2023-03-11T10:35:33.531Z,7.12
2023-03-11T10:38:06.981Z,7.22
2023-03-11T10:40:37.895Z,7.24
2023-03-11T10:43:13.556Z,7.25
2023-03-11T10:45:44.823Z,7.46
2023-03-11T10:48:16.074Z,7.71
2023-03-11T10:50:50.958Z,7.94
2023-03-11T10:53:21.307Z,8.01
2023-03-11T10:55:52.550Z,7.92
2023-03-11T10:58:23.629Z,7.85
2023-03-11T11:01:08.583Z,7.87
2023-03-11T11:03:37.537Z,7.88
2023-03-11T11:06:19.433Z,7.81
2023-03-11T11:08:47.817Z,7.90
2023-03-11T11:11:22.665Z,7.98
2023-03-11T11:13:58.776Z,8.06
2023-03-11T11:16:28.482Z,8.07
2023-03-11T11:19:03.252Z,8.05
2023-03-11T11:21:36.130Z,8.09
2023-03-11T11:24:15.906Z,8.05
2023-03-11T11:27:04.342Z,7.97
2023-03-11T11:29:36.098Z,7.95
2023-03-11T11:32:26.501Z,8.02
2023-03-11T11:34:59.653Z,7.91
2023-03-11T11:37:31.862Z,7.82
2023-03-11T11:40:12.247Z,7.86
2023-03-11T11:42:44.637Z,7.95
2023-03-11T11:45:17.818Z,7.92
2023-03-11T11:47:52.300Z,7.93
2023-03-11T11:50:28.960Z,7.88
2023-03-11T11:53:03.883Z,7.76
2023-03-11T11:55:34.608Z,7.73
2023-03-11T11:58:05.534Z,7.82
2023-03-11T12:00:45.257Z,7.96
2023-03-11T12:03:35.785Z,7.97
2023-03-11T12:06:13.395Z,7.92
2023-03-11T12:08:54.036Z,7.84
2023-03-11T12:11:27.985Z,7.83
2023-03-11T12:14:08.600Z,7.87
2023-03-11T12:16:45.137Z,7.81
2023-03-11T12:19:27.973Z,7.69
2023-03-11T12:22:43.014Z,7.51
2023-03-11T12:25:25.542Z,7.67
2023-03-11T12:28:09.314Z,7.75
2023-03-11T12:30:45.307Z,7.91
2023-03-11T12:33:18.598Z,7.84
2023-03-11T12:35:54.074Z,7.83
2023-03-11T12:38:31.190Z,7.85
2023-03-11T12:41:09.466Z,7.89
2023-03-11T12:44:24.951Z,7.98
2023-03-11T12:47:06.300Z,8.19
2023-03-11T12:49:37.981Z,8.37
2023-03-11T12:52:21.800Z,8.30
2023-03-11T12:55:11.168Z,8.15
2023-03-11T12:57:55.340Z,8.08
2023-03-11T13:00:32.743Z,7.87
2023-03-11T13:03:17.390Z,7.94
2023-03-11T13:06:06.487Z,7.89
2023-03-11T13:08:45.107Z,7.84
2023-03-11T13:11:45.713Z,7.78
2023-03-11T13:14:30.066Z,7.86
2023-03-11T13:17:18.601Z,7.60
2023-03-11T13:19:52.574Z,7.37
2023-03-11T13:23:00.787Z,7.24
2023-03-11T13:25:33.010Z,7.27
2023-03-11T13:28:25.980Z,6.95
2023-03-11T13:31:11.564Z,6.91
2023-03-11T13:33:51.080Z,6.94
2023-03-11T13:36:40.846Z,7.03
2023-03-11T13:39:40.509Z,6.89
2023-03-11T13:42:19.123Z,6.86
2023-03-11T13:44:49.022Z,6.77
2023-03-11T13:47:20.051Z,6.69
2023-03-11T13:49:53.821Z,6.61
2023-03-11T13:52:27.669Z,6.63
2023-03-11T13:55:02.640Z,6.54
2023-03-11T13:57:34.069Z,6.58
2023-03-11T14:00:17.128Z,6.57
2023-03-11T14:02:54.304Z,6.76
2023-03-11T14:05:26.491Z,6.81
2023-03-11T14:07:55.203Z,6.99
2023-03-11T14:10:26.906Z,7.14
2023-03-11T14:13:09.451Z,7.24
2023-03-11T14:15:47.366Z,7.35
2023-03-11T14:18:38.799Z,7.22
2023-03-11T14:21:14.995Z,7.19
2023-03-11T14:23:45.314Z,7.21
2023-03-11T14:26:16.277Z,7.20
2023-03-11T14:28:49.671Z,7.20
2023-03-11T14:31:32.367Z,7.24
2023-03-11T14:34:07.119Z,7.26
2023-03-11T14:36:43.354Z,7.35
2023-03-11T14:39:27.967Z,7.42
2023-03-11T14:42:00.611Z,7.42
2023-03-11T14:44:30.467Z,7.39
2023-03-11T14:47:07.973Z,7.51
2023-03-11T14:49:41.740Z,7.53
2023-03-11T14:52:17.954Z,7.46
2023-03-11T14:54:49.467Z,7.24
2023-03-11T14:57:26.306Z,7.26
2023-03-11T14:59:56.685Z,7.21
2023-03-11T15:02:46.295Z,7.30
2023-03-11T15:05:21.669Z,7.27
2023-03-11T15:07:53.027Z,7.32
2023-03-11T15:10:21.406Z,7.35
2023-03-11T15:12:49.871Z,7.41
2023-03-11T15:15:27.313Z,7.46
2023-03-11T15:17:56.658Z,7.60
2023-03-11T15:20:31.042Z,7.60
2023-03-11T15:23:01.760Z,7.45
2023-03-11T15:25:33.461Z,7.28
2023-03-11T15:28:25.440Z,7.34
2023-03-11T15:31:18.660Z,7.44
2023-03-11T15:33:51.596Z,7.45
2023-03-11T15:36:35.974Z,7.49
2023-03-11T15:39:17.461Z,7.62
2023-03-11T15:41:48.318Z,7.64
2023-03-11T15:44:25.554Z,7.69
2023-03-11T15:46:55.722Z,7.71
2023-03-11T15:49:25.241Z,7.63
2023-03-11T15:51:54.548Z,7.67
2023-03-11T15:54:23.713Z,7.49
2023-03-11T15:56:51.905Z,7.50
2023-03-11T15:59:19.829Z,7.46
2023-03-11T16:01:49.534Z,7.33
2023-03-11T16:04:19.190Z,7.22
2023-03-11T16:06:59.500Z,7.14
2023-03-11T16:09:36.402Z,7.18
2023-03-11T16:12:16.255Z,7.03
2023-03-11T16:14:44.271Z,6.78
2023-03-11T16:17:14.841Z,6.63
2023-03-11T16:19:43.084Z,6.56
2023-03-11T16:22:19.792Z,6.55
2023-03-11T16:24:55.149Z,6.63
2023-03-11T16:27:23.627Z,6.58
2023-03-11T16:29:51.445Z,6.49
2023-03-11T16:32:20.018Z,6.46
2023-03-11T16:34:48.219Z,6.35
2023-03-11T16:37:21.467Z,6.18
2023-03-11T16:39:50.778Z,6.07
2023-03-11T16:42:23.889Z,6.03
2023-03-11T16:44:52.196Z,6.00
2023-03-11T16:47:20.298Z,5.95
2023-03-11T16:49:53.501Z,5.93
2023-03-11T16:52:23.032Z,5.99
2023-03-11T16:54:52.715Z,5.91
2023-03-11T16:57:20.644Z,5.95
2023-03-11T16:59:49.317Z,5.85
2023-03-11T17:02:18.453Z,5.75
2023-03-11T17:04:49.510Z,5.70
2023-03-11T17:07:20.218Z,5.66
2023-03-11T17:09:50.870Z,5.60
2023-03-11T17:12:23.111Z,5.52
2023-03-11T17:14:51.356Z,5.42
2023-03-11T17:17:23.216Z,5.37
2023-03-11T17:19:51.152Z,5.32
2023-03-11T17:22:20.018Z,5.25
2023-03-11T17:24:49.936Z,5.18
2023-03-11T17:27:20.759Z,5.09
2023-03-11T17:29:49.544Z,5.00
2023-03-11T17:32:17.840Z,4.92
2023-03-11T17:34:46.356Z,4.83
2023-03-11T17:37:14.267Z,4.74
2023-03-11T17:39:47.285Z,4.66
2023-03-11T17:42:25.949Z,4.58
2023-03-11T17:44:58.554Z,4.52
2023-03-11T17:47:27.107Z,4.46
2023-03-11T17:49:55.424Z,4.39
2023-03-11T17:52:24.637Z,4.32
2023-03-11T17:54:53.512Z,4.28
2023-03-11T17:57:23.079Z,4.22
2023-03-11T17:59:52.677Z,4.15
2023-03-11T18:02:22.965Z,4.06
2023-03-11T18:04:53.985Z,4.02
2023-03-11T18:07:23.917Z,3.96
2023-03-11T18:09:54.914Z,3.90
2023-03-11T18:12:25.296Z,3.85
2023-03-11T18:14:53.763Z,3.79
2023-03-11T18:17:24.281Z,3.74
2023-03-11T18:19:52.156Z,3.67
2023-03-11T18:22:21.320Z,3.63
2023-03-11T18:24:51.704Z,3.58
2023-03-11T18:27:19.737Z,3.50
2023-03-11T18:29:49.203Z,3.41
2023-03-11T18:32:17.671Z,3.36
2023-03-11T18:34:45.933Z,3.30
2023-03-11T18:37:14.767Z,3.28
2023-03-11T18:39:43.706Z,3.22
2023-03-11T18:42:12.021Z,3.14
2023-03-11T18:44:40.103Z,3.09
2023-03-11T18:47:10.258Z,3.07
2023-03-11T18:49:40.888Z,3.03
2023-03-11T18:52:09.085Z,2.97
2023-03-11T18:54:38.716Z,2.93
2023-03-11T18:57:09.272Z,2.84
2023-03-11T18:59:39.884Z,2.80
2023-03-11T19:02:10.807Z,2.76
2023-03-11T19:04:38.669Z,2.75
2023-03-11T19:07:07.157Z,2.70
2023-03-11T19:09:35.103Z,2.62
2023-03-11T19:12:05.142Z,2.53
2023-03-11T19:14:36.490Z,2.43
2023-03-11T19:17:08.010Z,2.33
2023-03-11T19:19:37.768Z,2.27
2023-03-11T19:22:05.781Z,2.21
2023-03-11T19:24:33.827Z,2.18
2023-03-11T19:27:01.814Z,2.10
2023-03-11T19:29:32.076Z,2.04
2023-03-11T19:32:02.977Z,2.00
2023-03-11T19:34:31.717Z,1.95
2023-03-11T19:37:01.373Z,1.92
2023-03-11T19:39:29.616Z,1.88
2023-03-11T19:41:58.892Z,1.82
2023-03-11T19:44:27.400Z,1.75
2023-03-11T19:46:55.317Z,1.64
2023-03-11T19:49:25.783Z,1.65
2023-03-11T19:51:55.974Z,1.63
2023-03-11T19:54:27.983Z,1.59
2023-03-11T19:56:55.890Z,1.52
2023-03-11T19:59:23.821Z,1.49
2023-03-11T20:01:51.833Z,1.45
2023-03-11T20:04:22.159Z,1.44
2023-03-11T20:06:50.255Z,1.42
2023-03-11T20:09:18.474Z,1.42
2023-03-11T20:11:48.120Z,1.41
2023-03-11T20:14:16.308Z,1.40
2023-03-11T20:16:45.478Z,1.36
2023-03-11T20:19:14.019Z,1.33
2023-03-11T20:21:46.021Z,1.31
2023-03-11T20:24:14.511Z,1.27
2023-03-11T20:26:42.817Z,1.25
2023-03-11T20:29:12.748Z,1.21
2023-03-11T20:31:41.316Z,1.17
2023-03-11T20:34:11.225Z,1.14
2023-03-11T20:36:39.693Z,1.11
2023-03-11T20:39:10.669Z,1.09
2023-03-11T20:41:42.221Z,1.09
2023-03-11T20:44:14.600Z,1.09
2023-03-11T20:46:43.111Z,1.10
2023-03-11T20:49:11.618Z,1.07
2023-03-11T20:51:41.767Z,1.03
2023-03-11T20:54:11.929Z,1.05
2023-03-11T20:56:43.848Z,1.04
2023-03-11T20:59:14.661Z,1.01
2023-03-11T21:01:44.956Z,0.96
2023-03-11T21:04:15.919Z,0.97
2023-03-11T21:06:49.769Z,0.93
2023-03-11T21:09:19.274Z,0.90
2023-03-11T21:11:48.800Z,0.89
2023-03-11T21:14:19.505Z,0.89
2023-03-11T21:16:49.169Z,0.85
2023-03-11T21:19:17.488Z,0.83
2023-03-11T21:21:46.993Z,0.81
2023-03-11T21:24:15.655Z,0.82
2023-03-11T21:26:44.508Z,0.76
2023-03-11T21:29:14.056Z,0.76
2023-03-11T21:31:43.966Z,0.75
2023-03-11T21:34:14.952Z,0.65
2023-03-11T21:36:45.226Z,0.62
2023-03-11T21:39:14.942Z,0.63
2023-03-11T21:41:43.009Z,0.66
2023-03-11T21:44:11.408Z,0.63
2023-03-11T21:46:39.692Z,0.65
2023-03-11T21:49:12.776Z,0.65
2023-03-11T21:51:43.957Z,0.58
2023-03-11T21:54:12.696Z,0.56
2023-03-11T21:56:40.786Z,0.58
2023-03-11T21:59:11.898Z,0.63
2023-03-11T22:01:40.592Z,0.57
2023-03-11T22:04:18.095Z,0.57
2023-03-11T22:06:48.852Z,0.58
2023-03-11T22:09:17.015Z,0.61
2023-03-11T22:11:45.343Z,0.51
2023-03-11T22:14:13.406Z,0.49
2023-03-11T22:16:42.115Z,0.46
2023-03-11T22:19:11.241Z,0.45
2023-03-11T22:21:42.349Z,0.45
2023-03-11T22:24:10.978Z,0.45
2023-03-11T22:26:41.486Z,0.45
2023-03-11T22:29:12.992Z,0.37
2023-03-11T22:31:41.501Z,0.39
2023-03-11T22:34:09.425Z,0.35
2023-03-11T22:36:41.837Z,0.37
2023-03-11T22:39:09.732Z,0.40
2023-03-11T22:41:37.726Z,0.42
2023-03-11T22:44:06.276Z,0.45
2023-03-11T22:46:35.127Z,0.45
2023-03-11T22:49:04.525Z,0.45
2023-03-11T22:51:32.509Z,0.42
2023-03-11T22:54:01.850Z,0.43
2023-03-11T22:56:30.541Z,0.41
2023-03-11T22:58:59.767Z,0.40
2023-03-11T23:01:29.578Z,0.38
2023-03-11T23:03:58.794Z,0.38
2023-03-11T23:06:30.709Z,0.38
2023-03-11T23:08:59.081Z,0.40
2023-03-11T23:11:30.990Z,0.46
2023-03-11T23:14:00.398Z,0.51
2023-03-11T23:16:28.972Z,0.58
2023-03-11T23:18:57.184Z,0.61
2023-03-11T23:21:27.275Z,0.59
2023-03-11T23:23:57.345Z,0.58
2023-03-11T23:26:25.496Z,0.55
2023-03-11T23:28:55.410Z,0.53
2023-03-11T23:31:26.712Z,0.54
2023-03-11T23:33:55.439Z,0.54
2023-03-11T23:36:26.901Z,0.52
2023-03-11T23:38:56.296Z,0.46
2023-03-11T23:41:24.580Z,0.43
2023-03-11T23:43:54.493Z,0.41
2023-03-11T23:46:25.244Z,0.39
2023-03-11T23:48:53.330Z,0.38
2023-03-11T23:51:22.583Z,0.39
2023-03-11T23:53:50.939Z,0.33
2023-03-11T23:56:19.995Z,0.31
2023-03-11T23:58:47.875Z,0.28
